createdAt,value
2024-04-16T00:00:11.892Z,4.05
2024-04-16T00:02:42.506Z,4.13
2024-04-16T00:05:10.252Z,4.30
2024-04-16T00:07:38.277Z,4.60
2024-04-16T00:10:06.544Z,4.53
2024-04-16T00:12:34.756Z,4.50
2024-04-16T00:15:11.350Z,4.35
2024-04-16T00:17:39.639Z,4.70
2024-04-16T00:20:08.588Z,4.70
2024-04-16T00:22:36.422Z,4.55
2024-04-16T00:25:05.090Z,4.28
2024-04-16T00:27:32.900Z,4.60
2024-04-16T00:30:00.910Z,4.22
2024-04-16T00:32:29.122Z,4.13
2024-04-16T00:34:57.321Z,4.43
2024-04-16T00:37:25.202Z,4.20
2024-04-16T00:39:53.099Z,4.05
2024-04-16T00:42:20.871Z,5.00
2024-04-16T00:44:48.815Z,4.53
2024-04-16T00:47:18.890Z,4.15
2024-04-16T00:49:47.355Z,4.00
2024-04-16T00:52:15.539Z,4.20
2024-04-16T00:54:44.917Z,4.38
2024-04-16T00:57:12.943Z,4.33
2024-04-16T00:59:41.295Z,4.68
2024-04-16T01:02:09.371Z,4.40
2024-04-16T01:04:37.601Z,4.32
2024-04-16T01:07:06.485Z,4.00
2024-04-16T01:09:34.555Z,4.17
2024-04-16T01:12:02.318Z,4.43
2024-04-16T01:14:30.019Z,4.75
2024-04-16T01:16:58.011Z,4.45
2024-04-16T01:19:25.981Z,4.53
2024-04-16T01:21:53.834Z,4.67
2024-04-16T01:24:22.734Z,4.25
2024-04-16T01:26:51.147Z,4.15
2024-04-16T01:29:19.218Z,4.30
2024-04-16T01:31:47.152Z,3.95
2024-04-16T01:34:14.974Z,4.30
2024-04-16T01:36:42.844Z,4.00
2024-04-16T01:39:10.674Z,4.57
2024-04-16T01:41:38.446Z,3.90
2024-04-16T01:44:06.247Z,4.18
2024-04-16T01:46:34.115Z,4.40
2024-04-16T01:49:02.828Z,4.32
2024-04-16T01:51:31.236Z,4.30
2024-04-16T01:53:59.178Z,3.97
2024-04-16T01:56:26.913Z,4.18
2024-04-16T01:58:54.641Z,4.27
2024-04-16T02:01:22.403Z,4.00
2024-04-16T02:03:50.449Z,3.80
2024-04-16T02:06:18.199Z,4.03
2024-04-16T02:08:45.900Z,4.05
2024-04-16T02:11:15.992Z,4.57
2024-04-16T02:13:43.782Z,4.22
2024-04-16T02:16:11.432Z,4.10
2024-04-16T02:18:39.565Z,3.60
2024-04-16T02:21:07.625Z,3.78
2024-04-16T02:23:35.548Z,3.80
2024-04-16T02:26:03.230Z,4.15
2024-04-16T02:28:31.021Z,3.50
2024-04-16T02:30:59.212Z,3.35
2024-04-16T02:33:27.444Z,3.47
2024-04-16T02:35:57.123Z,3.80
2024-04-16T02:38:25.139Z,3.45
2024-04-16T02:40:53.052Z,3.90
2024-04-16T02:43:20.860Z,4.03
2024-04-16T02:45:48.815Z,4.43
2024-04-16T02:48:16.738Z,4.53
2024-04-16T02:50:47.711Z,4.28
2024-04-16T02:53:15.555Z,4.50
2024-04-16T02:55:43.510Z,3.85
2024-04-16T02:58:11.495Z,4.20
2024-04-16T03:00:39.881Z,4.00
2024-04-16T03:03:08.068Z,3.80
2024-04-16T03:05:35.843Z,4.00
2024-04-16T03:08:03.708Z,3.75
2024-04-16T03:10:31.867Z,4.00
2024-04-16T03:12:59.839Z,4.37
2024-04-16T03:15:27.687Z,4.15
2024-04-16T03:17:55.666Z,4.32
2024-04-16T03:20:23.815Z,3.97
2024-04-16T03:22:53.504Z,4.60
2024-04-16T03:25:21.476Z,4.83
2024-04-16T03:27:51.025Z,4.65
2024-04-16T03:30:18.830Z,4.80
2024-04-16T03:32:46.865Z,4.65
2024-04-16T03:35:14.723Z,4.43
2024-04-16T03:37:42.594Z,4.43
2024-04-16T03:40:13.978Z,4.68
2024-04-16T03:42:42.204Z,4.90
2024-04-16T03:45:10.019Z,4.90
2024-04-16T03:47:37.920Z,4.25
2024-04-16T03:50:06.059Z,4.43
2024-04-16T03:52:33.909Z,5.10
2024-04-16T03:55:01.937Z,4.38
2024-04-16T03:57:30.035Z,4.78
2024-04-16T04:00:16.390Z,4.40
2024-04-16T04:02:44.506Z,4.07
2024-04-16T04:05:12.674Z,3.97
2024-04-16T04:07:40.576Z,3.78
2024-04-16T04:10:08.476Z,3.67
2024-04-16T04:12:37.534Z,4.13
2024-04-16T04:15:06.446Z,3.30
2024-04-16T04:17:34.276Z,3.40
2024-04-16T04:20:02.892Z,3.70
2024-04-16T04:22:34.059Z,3.22
2024-04-16T04:25:01.990Z,3.78
2024-04-16T04:27:32.244Z,3.60
2024-04-16T04:30:00.309Z,3.20
2024-04-16T04:32:28.267Z,3.50
2024-04-16T04:34:57.307Z,3.40
2024-04-16T04:37:25.257Z,3.42
2024-04-16T04:39:53.227Z,3.30
2024-04-16T04:42:21.981Z,3.53
2024-04-16T04:44:49.725Z,3.45
2024-04-16T04:47:19.833Z,3.67
2024-04-16T04:49:47.875Z,3.50
2024-04-16T04:52:16.110Z,3.57
2024-04-16T04:54:44.036Z,3.55
2024-04-16T04:57:12.051Z,3.50
2024-04-16T04:59:41.606Z,5.43
2024-04-16T05:02:12.294Z,3.88
2024-04-16T05:04:40.219Z,4.23
2024-04-16T05:07:07.900Z,4.90
2024-04-16T05:09:35.838Z,4.85
2024-04-16T05:12:03.725Z,6.13
2024-04-16T05:14:31.417Z,5.72
2024-04-16T05:16:59.475Z,6.07
2024-04-16T05:19:27.267Z,6.10
2024-04-16T05:21:54.965Z,5.35
2024-04-16T05:24:22.842Z,4.32
2024-04-16T05:26:50.624Z,4.38
2024-04-16T05:29:19.322Z,4.30
2024-04-16T05:31:47.229Z,3.85
2024-04-16T05:34:15.042Z,3.60
2024-04-16T05:36:42.938Z,3.53
2024-04-16T05:39:11.237Z,4.20
2024-04-16T05:41:39.172Z,3.87
2024-04-16T05:44:07.760Z,3.97
2024-04-16T05:46:37.655Z,3.85
2024-04-16T05:49:08.552Z,4.07
2024-04-16T05:51:36.405Z,3.45
2024-04-16T05:54:08.217Z,3.50
2024-04-16T05:56:36.366Z,3.75
2024-04-16T05:59:04.670Z,3.50
2024-04-16T06:01:32.703Z,3.55
2024-04-16T06:04:03.170Z,3.38
2024-04-16T06:06:30.978Z,4.20
2024-04-16T06:08:59.178Z,4.10
2024-04-16T06:11:27.149Z,3.88
2024-04-16T06:13:55.397Z,3.88
2024-04-16T06:16:23.290Z,4.07
2024-04-16T06:18:53.315Z,4.17
2024-04-16T06:21:21.104Z,3.40
2024-04-16T06:23:48.892Z,3.78
2024-04-16T06:26:16.825Z,3.38
2024-04-16T06:28:45.019Z,3.55
2024-04-16T06:31:15.728Z,4.43
2024-04-16T06:33:45.448Z,4.07
2024-04-16T06:36:13.074Z,4.63
2024-04-16T06:38:41.131Z,4.82
2024-04-16T06:41:14.983Z,4.45
2024-04-16T06:43:42.665Z,4.63
2024-04-16T06:46:13.615Z,6.07
2024-04-16T06:48:41.403Z,4.35
2024-04-16T06:51:09.682Z,4.45
2024-04-16T06:53:40.535Z,4.18
2024-04-16T06:56:09.278Z,3.80
2024-04-16T06:58:37.110Z,4.32
2024-04-16T07:01:05.511Z,3.92
2024-04-16T07:03:33.342Z,3.97
2024-04-16T07:06:01.214Z,4.10
2024-04-16T07:08:29.076Z,4.60
2024-04-16T07:10:57.333Z,5.45
2024-04-16T07:13:25.255Z,4.47
2024-04-16T07:15:53.156Z,3.80
2024-04-16T07:18:21.664Z,3.90
2024-04-16T07:20:51.051Z,4.03
2024-04-16T07:23:18.928Z,5.45
2024-04-16T07:25:46.862Z,5.03
2024-04-16T07:28:14.657Z,4.30
2024-04-16T07:30:43.022Z,4.30
2024-04-16T07:33:11.009Z,3.90
2024-04-16T07:35:38.808Z,5.32
2024-04-16T07:38:06.581Z,4.57
2024-04-16T07:40:39.987Z,4.50
2024-04-16T07:43:08.087Z,4.78
2024-04-16T07:45:35.689Z,5.53
2024-04-16T07:48:03.579Z,5.40
2024-04-16T07:50:31.668Z,5.13
2024-04-16T07:52:59.460Z,5.38
2024-04-16T07:55:27.279Z,5.22
2024-04-16T07:57:54.944Z,5.43
2024-04-16T08:00:22.622Z,5.47
2024-04-16T08:02:50.281Z,5.63
2024-04-16T08:05:18.058Z,5.57
2024-04-16T08:07:47.131Z,5.13
2024-04-16T08:10:15.046Z,5.50
2024-04-16T08:12:42.886Z,5.47
2024-04-16T08:15:10.478Z,5.35
2024-04-16T08:17:38.273Z,5.38
2024-04-16T08:20:09.398Z,5.43
2024-04-16T08:22:38.261Z,5.30
2024-04-16T08:25:06.365Z,5.07
2024-04-16T08:27:34.174Z,4.90
2024-04-16T08:30:02.596Z,6.15
2024-04-16T08:32:30.662Z,5.45
2024-04-16T08:34:59.198Z,5.33
2024-04-16T08:37:27.257Z,5.15
2024-04-16T08:39:54.937Z,5.47
2024-04-16T08:42:23.921Z,5.30
2024-04-16T08:44:55.844Z,5.60
2024-04-16T08:47:25.006Z,5.27
2024-04-16T08:49:54.089Z,4.82
2024-04-16T08:52:23.190Z,4.80
2024-04-16T08:54:52.333Z,4.18
2024-04-16T08:57:21.906Z,4.50
2024-04-16T08:59:49.454Z,4.70
2024-04-16T09:02:18.680Z,5.25
2024-04-16T09:04:48.847Z,5.60
2024-04-16T09:07:18.887Z,5.43
2024-04-16T09:09:46.574Z,5.53
2024-04-16T09:12:14.700Z,5.40
2024-04-16T09:14:42.407Z,5.18
2024-04-16T09:17:16.741Z,5.53
2024-04-16T09:19:44.981Z,5.53
2024-04-16T09:22:12.788Z,5.45
2024-04-16T09:24:40.665Z,5.30
2024-04-16T09:27:11.420Z,4.93
2024-04-16T09:29:39.043Z,5.40
2024-04-16T09:32:07.120Z,4.90
2024-04-16T09:34:35.217Z,4.53
2024-04-16T09:37:02.995Z,5.10
2024-04-16T09:39:30.735Z,5.03
2024-04-16T09:42:00.324Z,5.00
2024-04-16T09:44:29.310Z,4.50
2024-04-16T09:46:59.601Z,4.78
2024-04-16T09:49:34.098Z,4.70
2024-04-16T09:52:09.959Z,4.30
2024-04-16T09:54:38.641Z,4.22
2024-04-16T09:57:08.143Z,4.40
2024-04-16T09:59:35.938Z,4.70
2024-04-16T10:02:05.540Z,4.17
2024-04-16T10:04:35.259Z,4.18
2024-04-16T10:07:03.217Z,4.00
2024-04-16T10:09:31.825Z,3.95
2024-04-16T10:12:00.944Z,3.90
2024-04-16T10:14:30.635Z,3.63
2024-04-16T10:16:58.338Z,3.70
2024-04-16T10:19:30.534Z,3.50
2024-04-16T10:22:05.478Z,4.00
2024-04-16T10:24:33.234Z,3.60
2024-04-16T10:27:03.379Z,3.33
2024-04-16T10:29:34.400Z,3.50
2024-04-16T10:32:03.942Z,3.55
2024-04-16T10:34:32.379Z,3.47
2024-04-16T10:37:00.260Z,3.60
2024-04-16T10:39:34.097Z,3.53
2024-04-16T10:42:04.033Z,4.10
2024-04-16T10:44:34.581Z,4.00
2024-04-16T10:47:05.797Z,4.68
2024-04-16T10:49:34.900Z,4.18
2024-04-16T10:52:22.367Z,3.80
2024-04-16T10:54:54.270Z,4.35
2024-04-16T10:57:23.344Z,3.85
2024-04-16T10:59:58.262Z,3.97
2024-04-16T11:02:33.657Z,3.55
2024-04-16T11:05:02.617Z,3.90
2024-04-16T11:07:30.504Z,3.50
2024-04-16T11:10:01.577Z,3.92
2024-04-16T11:12:29.666Z,3.78
2024-04-16T11:14:58.949Z,3.90
2024-04-16T11:17:29.975Z,4.13
2024-04-16T11:19:58.691Z,4.10
2024-04-16T11:22:29.804Z,4.25
2024-04-16T11:24:57.989Z,3.88
2024-04-16T11:27:26.211Z,4.18
2024-04-16T11:29:54.235Z,4.50
2024-04-16T11:32:23.307Z,4.47
2024-04-16T11:34:51.228Z,4.57
2024-04-16T11:37:19.472Z,3.80
2024-04-16T11:39:50.426Z,4.88
2024-04-16T11:42:19.046Z,3.97
2024-04-16T11:44:46.812Z,4.03
2024-04-16T11:47:14.724Z,3.58
2024-04-16T11:49:46.169Z,3.92
2024-04-16T11:52:13.970Z,4.18
2024-04-16T11:54:41.696Z,4.30
2024-04-16T11:57:09.380Z,3.92
2024-04-16T11:59:37.252Z,3.85
2024-04-16T12:02:10.154Z,3.70
2024-04-16T12:04:40.040Z,4.32
2024-04-16T12:07:07.884Z,3.87
2024-04-16T12:09:35.584Z,3.90
2024-04-16T12:12:03.519Z,3.97
2024-04-16T12:14:31.250Z,4.20
2024-04-16T12:16:59.112Z,4.32
2024-04-16T12:19:27.090Z,4.90
2024-04-16T12:21:55.066Z,3.50
2024-04-16T12:24:22.846Z,3.88
2024-04-16T12:26:50.982Z,3.53
2024-04-16T12:29:18.752Z,4.38
2024-04-16T12:31:49.589Z,4.00
2024-04-16T12:34:17.706Z,4.40
2024-04-16T12:36:47.288Z,3.90
2024-04-16T12:39:18.164Z,3.72
2024-04-16T12:41:45.986Z,4.03
2024-04-16T12:44:13.939Z,3.90
2024-04-16T12:46:41.553Z,4.13
2024-04-16T12:49:09.507Z,4.35
2024-04-16T12:51:39.922Z,4.30
2024-04-16T12:54:07.910Z,4.45
2024-04-16T12:56:35.933Z,4.73
2024-04-16T12:59:04.574Z,4.47
2024-04-16T13:01:32.528Z,4.60
2024-04-16T13:04:03.710Z,4.38
2024-04-16T13:06:34.442Z,4.70
2024-04-16T13:09:03.638Z,3.97
2024-04-16T13:11:31.623Z,4.35
2024-04-16T13:13:59.586Z,4.40
2024-04-16T13:16:27.698Z,4.53
2024-04-16T13:18:55.693Z,3.72
2024-04-16T13:21:23.390Z,4.33
2024-04-16T13:23:53.585Z,4.05
2024-04-16T13:26:24.815Z,4.20
2024-04-16T13:28:54.189Z,4.30
2024-04-16T13:31:21.981Z,4.53
2024-04-16T13:33:50.049Z,4.10
2024-04-16T13:36:17.868Z,4.05
2024-04-16T13:38:45.760Z,4.13
2024-04-16T13:41:13.858Z,4.22
2024-04-16T13:43:45.175Z,4.07
2024-04-16T13:46:13.904Z,4.00
2024-04-16T13:48:44.822Z,4.20
2024-04-16T13:51:13.711Z,4.43
2024-04-16T13:53:42.593Z,4.30
2024-04-16T13:56:10.990Z,4.10
2024-04-16T13:58:39.533Z,4.43
2024-04-16T14:01:08.028Z,4.18
2024-04-16T14:03:36.358Z,4.07
2024-04-16T14:06:04.342Z,4.50
2024-04-16T14:08:32.309Z,4.90
2024-04-16T14:11:00.553Z,4.30
2024-04-16T14:13:31.572Z,4.50
2024-04-16T14:15:59.685Z,4.53
2024-04-16T14:18:27.955Z,6.13
2024-04-16T14:20:56.567Z,4.00
2024-04-16T14:23:25.810Z,4.50
2024-04-16T14:25:53.710Z,4.68
2024-04-16T14:28:22.588Z,4.68
2024-04-16T14:30:50.498Z,3.80
2024-04-16T14:33:20.038Z,3.75
2024-04-16T14:35:49.468Z,4.27
2024-04-16T14:38:17.641Z,3.58
2024-04-16T14:40:46.335Z,4.70
2024-04-16T14:43:14.421Z,3.70
2024-04-16T14:45:42.632Z,3.70
2024-04-16T14:48:10.643Z,3.87
2024-04-16T14:50:45.530Z,3.55
2024-04-16T14:53:13.498Z,3.53
2024-04-16T14:55:44.857Z,3.60
2024-04-16T14:58:12.923Z,3.70
2024-04-16T15:00:47.242Z,3.23
2024-04-16T15:03:18.387Z,3.30
2024-04-16T15:05:48.213Z,3.30
2024-04-16T15:08:18.393Z,3.60
2024-04-16T15:10:48.919Z,3.30
2024-04-16T15:13:17.149Z,3.43
2024-04-16T15:15:45.330Z,3.47
2024-04-16T15:18:13.508Z,3.38
2024-04-16T15:20:41.186Z,3.60
2024-04-16T15:23:09.341Z,3.47
2024-04-16T15:25:37.205Z,3.50
2024-04-16T15:28:05.273Z,3.33
2024-04-16T15:30:33.486Z,3.65
2024-04-16T15:33:01.479Z,3.63
2024-04-16T15:35:29.390Z,3.78
2024-04-16T15:37:57.034Z,4.03
2024-04-16T15:40:31.465Z,3.40
2024-04-16T15:43:00.327Z,4.82
2024-04-16T15:45:27.996Z,3.30
2024-04-16T15:47:56.212Z,3.40
2024-04-16T15:50:25.914Z,3.00
2024-04-16T15:52:56.612Z,3.53
2024-04-16T15:55:27.653Z,3.25
2024-04-16T15:57:55.996Z,3.60
2024-04-16T16:00:27.052Z,3.33
2024-04-16T16:02:55.027Z,3.20
2024-04-16T16:05:25.137Z,3.45
2024-04-16T16:07:52.971Z,3.58
2024-04-16T16:10:20.961Z,3.95
2024-04-16T16:12:48.902Z,3.80
2024-04-16T16:15:16.935Z,3.27
2024-04-16T16:17:44.896Z,3.55
2024-04-16T16:20:12.719Z,3.60
2024-04-16T16:22:43.637Z,3.38
2024-04-16T16:25:11.609Z,3.78
2024-04-16T16:27:39.577Z,3.50
2024-04-16T16:30:07.807Z,3.22
2024-04-16T16:32:35.739Z,3.83
2024-04-16T16:35:06.290Z,3.55
2024-04-16T16:37:34.947Z,3.63
2024-04-16T16:40:03.237Z,3.60
2024-04-16T16:42:31.437Z,4.05
2024-04-16T16:45:01.533Z,4.35
2024-04-16T16:47:31.241Z,4.25
2024-04-16T16:49:59.147Z,4.70
2024-04-16T16:52:27.343Z,5.13
2024-04-16T16:54:55.050Z,4.50
2024-04-16T16:57:23.040Z,4.40
2024-04-16T16:59:50.812Z,3.60
2024-04-16T17:02:18.706Z,3.30
2024-04-16T17:04:46.695Z,3.30
2024-04-16T17:07:14.499Z,4.03
2024-04-16T17:09:42.258Z,4.30
2024-04-16T17:12:10.708Z,3.50
2024-04-16T17:14:40.843Z,3.63
2024-04-16T17:17:08.994Z,3.87
2024-04-16T17:19:36.859Z,3.70
2024-04-16T17:22:05.428Z,4.40
2024-04-16T17:24:33.258Z,3.67
2024-04-16T17:27:01.145Z,4.15
2024-04-16T17:29:29.115Z,4.37
2024-04-16T17:31:57.023Z,4.20
2024-04-16T17:34:24.893Z,4.45
2024-04-16T17:36:52.669Z,4.85
2024-04-16T17:39:20.276Z,5.35
2024-04-16T17:41:47.908Z,4.00
2024-04-16T17:44:15.629Z,5.22
2024-04-16T17:46:43.332Z,4.45
2024-04-16T17:49:11.110Z,4.90
2024-04-16T17:51:38.937Z,5.20
2024-04-16T17:54:07.357Z,4.70
2024-04-16T17:56:36.014Z,4.65
2024-04-16T17:59:03.801Z,4.40
2024-04-16T18:01:31.727Z,4.22
2024-04-16T18:04:01.712Z,5.80
2024-04-16T18:06:30.712Z,4.80
2024-04-16T18:08:58.659Z,5.05
2024-04-16T18:11:27.453Z,4.63
2024-04-16T18:13:56.589Z,4.93
2024-04-16T18:16:26.390Z,4.55
2024-04-16T18:18:54.107Z,4.87
2024-04-16T18:21:21.739Z,4.57
2024-04-16T18:23:51.702Z,4.70
2024-04-16T18:26:19.820Z,5.15
2024-04-16T18:28:47.444Z,4.28
2024-04-16T18:31:15.377Z,4.50
2024-04-16T18:33:43.211Z,4.85
2024-04-16T18:36:11.011Z,4.10
2024-04-16T18:38:41.518Z,4.53
2024-04-16T18:41:09.674Z,4.85
2024-04-16T18:43:37.594Z,5.30
2024-04-16T18:46:06.612Z,5.13
2024-04-16T18:48:34.321Z,5.68
2024-04-16T18:51:02.237Z,5.18
2024-04-16T18:53:30.568Z,5.82
2024-04-16T18:55:58.219Z,5.00
2024-04-16T18:58:26.035Z,5.18
2024-04-16T19:00:53.834Z,5.28
2024-04-16T19:03:22.210Z,5.15
2024-04-16T19:05:53.011Z,4.90
2024-04-16T19:08:21.101Z,5.47
2024-04-16T19:10:48.833Z,5.30
2024-04-16T19:13:16.527Z,5.18
2024-04-16T19:15:47.169Z,4.90
2024-04-16T19:18:14.815Z,5.65
2024-04-16T19:20:42.586Z,4.83
2024-04-16T19:23:10.258Z,5.05
2024-04-16T19:25:38.030Z,4.97
2024-04-16T19:28:06.036Z,4.50
2024-04-16T19:30:33.899Z,5.32
2024-04-16T19:33:01.659Z,4.87
2024-04-16T19:35:29.378Z,4.95
2024-04-16T19:37:57.210Z,4.80
2024-04-16T19:40:29.614Z,5.07
2024-04-16T19:43:00.077Z,4.50
2024-04-16T19:45:27.662Z,4.40
2024-04-16T19:47:55.477Z,4.63
2024-04-16T19:50:23.077Z,4.28
2024-04-16T19:52:50.841Z,4.60
2024-04-16T19:55:20.819Z,5.18
2024-04-16T19:57:48.446Z,4.80
2024-04-16T20:00:16.191Z,4.50
2024-04-16T20:02:43.951Z,4.32
2024-04-16T20:05:11.620Z,4.57
2024-04-16T20:07:39.263Z,4.82
2024-04-16T20:10:07.947Z,4.90
2024-04-16T20:12:35.817Z,5.00
2024-04-16T20:15:03.418Z,5.68
2024-04-16T20:17:34.595Z,4.97
2024-04-16T20:20:02.397Z,5.10
2024-04-16T20:22:30.183Z,5.17
2024-04-16T20:24:57.841Z,5.35
2024-04-16T20:27:26.110Z,4.45
2024-04-16T20:29:55.548Z,4.82
2024-04-16T20:32:23.269Z,4.60
2024-04-16T20:34:53.877Z,4.53
2024-04-16T20:37:22.195Z,4.22
2024-04-16T20:39:49.996Z,4.38
2024-04-16T20:42:17.637Z,4.97
2024-04-16T20:44:45.312Z,4.70
2024-04-16T20:47:12.960Z,4.60
2024-04-16T20:49:40.646Z,4.10
2024-04-16T20:52:08.297Z,4.57
2024-04-16T20:54:36.083Z,4.57
2024-04-16T20:57:06.262Z,4.53
2024-04-16T20:59:33.851Z,5.33
2024-04-16T21:02:01.517Z,4.70
2024-04-16T21:04:29.268Z,5.00
2024-04-16T21:06:57.057Z,4.70
2024-04-16T21:09:24.735Z,5.45
2024-04-16T21:11:52.294Z,5.50
2024-04-16T21:14:19.990Z,5.40
2024-04-16T21:16:47.671Z,5.88
2024-04-16T21:19:15.431Z,5.03
2024-04-16T21:21:43.561Z,5.18
2024-04-16T21:24:11.213Z,5.87
2024-04-16T21:26:39.098Z,5.95
2024-04-16T21:29:06.671Z,5.57
2024-04-16T21:31:34.403Z,5.80
2024-04-16T21:34:02.025Z,5.35
2024-04-16T21:36:29.678Z,6.07
2024-04-16T21:38:57.375Z,5.78
2024-04-16T21:41:25.077Z,5.50
2024-04-16T21:43:52.823Z,5.93
2024-04-16T21:46:20.702Z,5.53
2024-04-16T21:48:48.451Z,5.70
2024-04-16T21:51:16.266Z,6.22
2024-04-16T21:53:44.172Z,5.80
2024-04-16T21:56:12.593Z,5.85
2024-04-16T21:58:40.318Z,5.88
2024-04-16T22:01:09.167Z,5.77
2024-04-16T22:03:37.132Z,5.95
2024-04-16T22:06:05.525Z,6.00
2024-04-16T22:08:34.125Z,6.35
2024-04-16T22:11:04.928Z,6.60
2024-04-16T22:13:32.981Z,6.20
2024-04-16T22:16:02.428Z,6.88
2024-04-16T22:18:30.826Z,5.28
2024-04-16T22:20:59.396Z,5.90
2024-04-16T22:23:27.428Z,5.35
2024-04-16T22:26:01.592Z,6.03
2024-04-16T22:28:30.769Z,4.82
2024-04-16T22:30:58.601Z,5.78
2024-04-16T22:33:26.857Z,6.15
2024-04-16T22:35:54.888Z,5.47
2024-04-16T22:38:24.941Z,5.13
2024-04-16T22:40:53.783Z,5.32
2024-04-16T22:43:21.886Z,5.38
